sensor_id;sensor_type;location;lat;lon;timestamp;P1;durP1;ratioP1;P2;durP2;ratioP2
15516;SDS011;7860;52.030;5.572;2023-07-31T00:04:12;4.97;;;2.08;;
15516;SDS011;7860;52.030;5.572;2023-07-31T00:04:12;3.92;;;2.13;;
15516;SDS011;7860;52.030;5.572;2023-07-31T00:04:12;4.35;;;1.93;;
15516;SDS011;7860;52.030;5.572;2023-07-31T00:04:55;5.07;;;2.08;;
15516;SDS011;7860;52.030;5.572;2023-07-31T00:05:55;4.24;;;2.03;;
15516;SDS011;7860;52.030;5.572;2023-07-31T00:06:55;4.39;;;2.19;;
15516;SDS011;7860;52.030;5.572;2023-07-31T00:07:55;3.95;;;2.04;;
15516;SDS011;7860;52.030;5.572;2023-07-31T00:08:55;7.14;;;2.37;;
15516;SDS011;7860;52.030;5.572;2023-07-31T00:09:55;4.55;;;2.18;;
15516;SDS011;7860;52.030;5.572;2023-07-31T00:10:55;4.87;;;2.02;;
15516;SDS011;7860;52.030;5.572;2023-07-31T00:11:55;4.07;;;2.06;;
15516;SDS011;7860;52.030;5.572;2023-07-31T00:12:55;4.31;;;2.07;;
15516;SDS011;7860;52.030;5.572;2023-07-31T00:13:55;4.64;;;2.06;;
15516;SDS011;7860;52.030;5.572;2023-07-31T00:14:55;5.16;;;2.35;;
15516;SDS011;7860;52.030;5.572;2023-07-31T00:15:55;4.82;;;2.30;;
15516;SDS011;7860;52.030;5.572;2023-07-31T00:16:55;4.38;;;2.26;;
15516;SDS011;7860;52.030;5.572;2023-07-31T00:17:56;4.83;;;2.35;;
15516;SDS011;7860;52.030;5.572;2023-07-31T00:18:56;5.32;;;2.48;;
15516;SDS011;7860;52.030;5.572;2023-07-31T00:19:56;5.57;;;2.78;;
15516;SDS011;7860;52.030;5.572;2023-07-31T00:20:56;6.45;;;2.92;;
15516;SDS011;7860;52.030;5.572;2023-07-31T00:21:56;5.36;;;2.89;;
15516;SDS011;7860;52.030;5.572;2023-07-31T00:22:56;5.36;;;2.85;;
15516;SDS011;7860;52.030;5.572;2023-07-31T00:23:56;6.69;;;2.78;;
15516;SDS011;7860;52.030;5.572;2023-07-31T00:24:56;7.48;;;3.07;;
15516;SDS011;7860;52.030;5.572;2023-07-31T00:25:56;6.95;;;3.19;;
15516;SDS011;7860;52.030;5.572;2023-07-31T00:26:56;8.71;;;3.34;;
15516;SDS011;7860;52.030;5.572;2023-07-31T00:27:56;8.29;;;3.65;;
15516;SDS011;7860;52.030;5.572;2023-07-31T00:28:56;8.21;;;3.42;;
15516;SDS011;7860;52.030;5.572;2023-07-31T00:29:56;8.90;;;3.95;;
15516;SDS011;7860;52.030;5.572;2023-07-31T00:30:56;10.43;;;4.01;;
15516;SDS011;7860;52.030;5.572;2023-07-31T00:31:56;10.33;;;3.71;;
15516;SDS011;7860;52.030;5.572;2023-07-31T00:32:56;12.27;;;4.42;;
15516;SDS011;7860;52.030;5.572;2023-07-31T00:33:56;14.66;;;4.41;;
15516;SDS011;7860;52.030;5.572;2023-07-31T00:34:56;12.41;;;4.57;;
15516;SDS011;7860;52.030;5.572;2023-07-31T00:35:57;11.45;;;4.27;;
15516;SDS011;7860;52.030;5.572;2023-07-31T00:36:57;14.13;;;5.04;;
15516;SDS011;7860;52.030;5.572;2023-07-31T00:37:57;13.91;;;5.62;;
15516;SDS011;7860;52.030;5.572;2023-07-31T00:38:57;22.04;;;5.79;;
15516;SDS011;7860;52.030;5.572;2023-07-31T00:39:58;16.76;;;6.29;;
15516;SDS011;7860;52.030;5.572;2023-07-31T00:40:58;17.44;;;5.85;;
15516;SDS011;7860;52.030;5.572;2023-07-31T00:41:58;19.68;;;5.96;;
15516;SDS011;7860;52.030;5.572;2023-07-31T00:42:58;21.77;;;7.04;;
15516;SDS011;7860;52.030;5.572;2023-07-31T00:43:58;22.54;;;6.58;;
15516;SDS011;7860;52.030;5.572;2023-07-31T00:44:58;21.65;;;6.72;;
15516;SDS011;7860;52.030;5.572;2023-07-31T00:45:58;21.10;;;6.67;;
15516;SDS011;7860;52.030;5.572;2023-07-31T00:46:58;21.55;;;7.06;;
15516;SDS011;7860;52.030;5.572;2023-07-31T00:47:58;22.48;;;7.34;;
15516;SDS011;7860;52.030;5.572;2023-07-31T00:48:59;25.89;;;7.48;;
15516;SDS011;7860;52.030;5.572;2023-07-31T00:49:59;24.21;;;7.53;;
15516;SDS011;7860;52.030;5.572;2023-07-31T00:50:58;27.74;;;7.96;;
15516;SDS011;7860;52.030;5.572;2023-07-31T00:51:59;28.87;;;7.81;;
15516;SDS011;7860;52.030;5.572;2023-07-31T00:52:59;30.29;;;8.58;;
15516;SDS011;7860;52.030;5.572;2023-07-31T00:53:59;28.65;;;8.10;;
15516;SDS011;7860;52.030;5.572;2023-07-31T00:54:59;23.31;;;7.63;;
15516;SDS011;7860;52.030;5.572;2023-07-31T00:55:59;26.86;;;7.76;;
15516;SDS011;7860;52.030;5.572;2023-07-31T00:56:59;23.73;;;7.67;;
15516;SDS011;7860;52.030;5.572;2023-07-31T00:57:59;27.45;;;7.83;;
15516;SDS011;7860;52.030;5.572;2023-07-31T00:58:59;26.44;;;7.82;;
15516;SDS011;7860;52.030;5.572;2023-07-31T00:59:59;32.59;;;8.70;;
15516;SDS011;7860;52.030;5.572;2023-07-31T01:00:59;31.27;;;8.69;;
15516;SDS011;7860;52.030;5.572;2023-07-31T01:01:59;25.54;;;8.04;;
15516;SDS011;7860;52.030;5.572;2023-07-31T01:02:59;25.01;;;7.87;;
15516;SDS011;7860;52.030;5.572;2023-07-31T01:03:59;29.16;;;7.98;;
15516;SDS011;7860;52.030;5.572;2023-07-31T01:04:59;27.29;;;8.47;;
15516;SDS011;7860;52.030;5.572;2023-07-31T01:06:02;29.79;;;7.83;;
15516;SDS011;7860;52.030;5.572;2023-07-31T01:07:01;26.72;;;8.07;;
15516;SDS011;7860;52.030;5.572;2023-07-31T01:08:02;26.89;;;7.64;;
15516;SDS011;7860;52.030;5.572;2023-07-31T01:09:01;22.63;;;7.52;;
15516;SDS011;7860;52.030;5.572;2023-07-31T01:10:02;25.23;;;7.45;;
15516;SDS011;7860;52.030;5.572;2023-07-31T01:11:00;24.97;;;7.74;;
15516;SDS011;7860;52.030;5.572;2023-07-31T01:12:01;29.37;;;7.52;;
15516;SDS011;7860;52.030;5.572;2023-07-31T01:13:00;25.05;;;7.55;;
15516;SDS011;7860;52.030;5.572;2023-07-31T01:14:00;24.61;;;7.99;;
15516;SDS011;7860;52.030;5.572;2023-07-31T01:15:02;27.67;;;8.38;;
15516;SDS011;7860;52.030;5.572;2023-07-31T01:16:00;30.00;;;7.86;;
15516;SDS011;7860;52.030;5.572;2023-07-31T01:17:00;24.58;;;7.49;;
15516;SDS011;7860;52.030;5.572;2023-07-31T01:18:00;25.48;;;7.75;;
15516;SDS011;7860;52.030;5.572;2023-07-31T01:19:00;24.11;;;7.33;;
15516;SDS011;7860;52.030;5.572;2023-07-31T01:20:02;22.12;;;7.09;;
15516;SDS011;7860;52.030;5.572;2023-07-31T01:21:03;25.79;;;7.42;;
15516;SDS011;7860;52.030;5.572;2023-07-31T01:22:17;29.75;;;8.09;;
15516;SDS011;7860;52.030;5.572;2023-07-31T01:23:08;23.29;;;7.65;;
15516;SDS011;7860;52.030;5.572;2023-07-31T01:24:07;24.39;;;7.46;;
15516;SDS011;7860;52.030;5.572;2023-07-31T01:25:05;23.93;;;7.51;;
15516;SDS011;7860;52.030;5.572;2023-07-31T01:26:03;23.61;;;7.73;;
15516;SDS011;7860;52.030;5.572;2023-07-31T01:27:02;25.40;;;6.88;;
15516;SDS011;7860;52.030;5.572;2023-07-31T01:28:02;24.27;;;6.93;;
15516;SDS011;7860;52.030;5.572;2023-07-31T01:29:03;21.28;;;7.04;;
15516;SDS011;7860;52.030;5.572;2023-07-31T01:30:03;23.76;;;7.49;;
15516;SDS011;7860;52.030;5.572;2023-07-31T01:31:01;19.76;;;7.18;;
15516;SDS011;7860;52.030;5.572;2023-07-31T01:32:02;25.00;;;7.51;;
15516;SDS011;7860;52.030;5.572;2023-07-31T01:33:01;22.77;;;6.65;;
15516;SDS011;7860;52.030;5.572;2023-07-31T01:34:01;21.87;;;6.75;;
15516;SDS011;7860;52.030;5.572;2023-07-31T01:35:02;22.15;;;6.65;;
15516;SDS011;7860;52.030;5.572;2023-07-31T01:36:02;22.47;;;6.72;;
15516;SDS011;7860;52.030;5.572;2023-07-31T01:37:02;25.94;;;7.32;;
15516;SDS011;7860;52.030;5.572;2023-07-31T01:38:02;22.70;;;6.97;;
15516;SDS011;7860;52.030;5.572;2023-07-31T01:39:02;20.36;;;6.20;;
15516;SDS011;7860;52.030;5.572;2023-07-31T01:40:02;20.50;;;6.57;;
15516;SDS011;7860;52.030;5.572;2023-07-31T01:41:02;22.84;;;6.85;;
15516;SDS011;7860;52.030;5.572;2023-07-31T01:42:03;19.28;;;6.99;;
15516;SDS011;7860;52.030;5.572;2023-07-31T01:43:02;26.13;;;7.11;;
15516;SDS011;7860;52.030;5.572;2023-07-31T01:44:02;21.12;;;7.08;;
15516;SDS011;7860;52.030;5.572;2023-07-31T01:45:02;19.15;;;7.09;;
15516;SDS011;7860;52.030;5.572;2023-07-31T01:46:02;23.32;;;6.81;;
15516;SDS011;7860;52.030;5.572;2023-07-31T01:47:03;21.90;;;6.73;;
15516;SDS011;7860;52.030;5.572;2023-07-31T01:48:02;21.44;;;6.76;;
15516;SDS011;7860;52.030;5.572;2023-07-31T01:49:02;22.90;;;7.17;;
15516;SDS011;7860;52.030;5.572;2023-07-31T01:50:03;24.55;;;6.78;;
15516;SDS011;7860;52.030;5.572;2023-07-31T01:51:03;22.32;;;7.04;;
15516;SDS011;7860;52.030;5.572;2023-07-31T01:52:03;24.24;;;7.08;;
15516;SDS011;7860;52.030;5.572;2023-07-31T01:53:03;21.05;;;7.18;;
15516;SDS011;7860;52.030;5.572;2023-07-31T01:54:03;23.81;;;7.10;;
15516;SDS011;7860;52.030;5.572;2023-07-31T01:55:03;20.72;;;6.76;;
15516;SDS011;7860;52.030;5.572;2023-07-31T01:56:03;19.98;;;6.79;;
15516;SDS011;7860;52.030;5.572;2023-07-31T01:57:03;20.91;;;7.16;;
15516;SDS011;7860;52.030;5.572;2023-07-31T01:58:03;23.60;;;7.36;;
15516;SDS011;7860;52.030;5.572;2023-07-31T01:59:03;27.50;;;7.47;;
15516;SDS011;7860;52.030;5.572;2023-07-31T02:00:04;20.75;;;6.50;;
15516;SDS011;7860;52.030;5.572;2023-07-31T02:01:03;21.08;;;6.82;;
15516;SDS011;7860;52.030;5.572;2023-07-31T02:02:04;19.87;;;6.69;;
15516;SDS011;7860;52.030;5.572;2023-07-31T02:03:03;21.25;;;7.12;;
15516;SDS011;7860;52.030;5.572;2023-07-31T02:04:03;18.23;;;6.75;;
15516;SDS011;7860;52.030;5.572;2023-07-31T02:05:04;21.98;;;6.77;;
15516;SDS011;7860;52.030;5.572;2023-07-31T02:06:04;19.21;;;6.42;;
15516;SDS011;7860;52.030;5.572;2023-07-31T02:07:04;22.81;;;6.36;;
15516;SDS011;7860;52.030;5.572;2023-07-31T02:08:04;17.45;;;6.22;;
15516;SDS011;7860;52.030;5.572;2023-07-31T02:09:04;19.06;;;6.30;;
15516;SDS011;7860;52.030;5.572;2023-07-31T02:10:04;14.51;;;5.62;;
15516;SDS011;7860;52.030;5.572;2023-07-31T02:11:04;20.65;;;6.13;;
15516;SDS011;7860;52.030;5.572;2023-07-31T02:12:04;16.79;;;6.08;;
15516;SDS011;7860;52.030;5.572;2023-07-31T02:13:04;18.79;;;5.90;;
15516;SDS011;7860;52.030;5.572;2023-07-31T02:14:04;15.67;;;5.52;;
15516;SDS011;7860;52.030;5.572;2023-07-31T02:15:04;17.24;;;5.45;;
15516;SDS011;7860;52.030;5.572;2023-07-31T02:16:04;15.26;;;5.25;;
15516;SDS011;7860;52.030;5.572;2023-07-31T02:17:05;17.16;;;5.29;;
15516;SDS011;7860;52.030;5.572;2023-07-31T02:18:04;16.01;;;5.54;;
15516;SDS011;7860;52.030;5.572;2023-07-31T02:19:04;17.90;;;5.33;;
15516;SDS011;7860;52.030;5.572;2023-07-31T02:20:05;16.80;;;5.36;;
15516;SDS011;7860;52.030;5.572;2023-07-31T02:21:05;12.41;;;4.35;;
15516;SDS011;7860;52.030;5.572;2023-07-31T02:22:05;13.25;;;4.38;;
15516;SDS011;7860;52.030;5.572;2023-07-31T02:23:05;12.37;;;4.41;;
15516;SDS011;7860;52.030;5.572;2023-07-31T02:24:05;16.20;;;4.28;;
15516;SDS011;7860;52.030;5.572;2023-07-31T02:25:05;15.08;;;4.26;;
15516;SDS011;7860;52.030;5.572;2023-07-31T02:26:05;11.75;;;3.68;;
15516;SDS011;7860;52.030;5.572;2023-07-31T02:27:05;13.76;;;4.29;;
15516;SDS011;7860;52.030;5.572;2023-07-31T02:28:05;13.09;;;4.50;;
15516;SDS011;7860;52.030;5.572;2023-07-31T02:29:05;12.39;;;4.09;;
15516;SDS011;7860;52.030;5.572;2023-07-31T02:30:06;14.33;;;4.28;;
15516;SDS011;7860;52.030;5.572;2023-07-31T02:31:05;14.66;;;4.38;;
15516;SDS011;7860;52.030;5.572;2023-07-31T02:32:06;14.30;;;4.59;;
15516;SDS011;7860;52.030;5.572;2023-07-31T02:33:05;14.55;;;4.48;;
15516;SDS011;7860;52.030;5.572;2023-07-31T02:34:05;14.45;;;4.34;;
15516;SDS011;7860;52.030;5.572;2023-07-31T02:35:06;15.27;;;4.94;;
15516;SDS011;7860;52.030;5.572;2023-07-31T02:36:06;13.50;;;4.60;;
15516;SDS011;7860;52.030;5.572;2023-07-31T02:37:06;15.86;;;5.10;;
15516;SDS011;7860;52.030;5.572;2023-07-31T02:38:06;13.81;;;4.91;;
15516;SDS011;7860;52.030;5.572;2023-07-31T02:39:06;17.60;;;5.05;;
15516;SDS011;7860;52.030;5.572;2023-07-31T02:40:06;16.09;;;5.14;;
15516;SDS011;7860;52.030;5.572;2023-07-31T02:41:06;19.37;;;5.64;;
15516;SDS011;7860;52.030;5.572;2023-07-31T02:42:06;20.26;;;5.73;;
15516;SDS011;7860;52.030;5.572;2023-07-31T02:43:06;19.47;;;6.00;;
15516;SDS011;7860;52.030;5.572;2023-07-31T02:44:06;15.10;;;5.48;;
15516;SDS011;7860;52.030;5.572;2023-07-31T02:45:07;17.29;;;6.18;;
15516;SDS011;7860;52.030;5.572;2023-07-31T02:46:06;19.73;;;6.32;;
15516;SDS011;7860;52.030;5.572;2023-07-31T02:47:06;19.92;;;6.19;;
15516;SDS011;7860;52.030;5.572;2023-07-31T02:48:06;19.36;;;5.44;;
15516;SDS011;7860;52.030;5.572;2023-07-31T02:49:06;20.02;;;5.96;;
15516;SDS011;7860;52.030;5.572;2023-07-31T02:50:07;23.22;;;6.24;;
15516;SDS011;7860;52.030;5.572;2023-07-31T02:51:07;19.87;;;6.34;;
15516;SDS011;7860;52.030;5.572;2023-07-31T02:52:07;22.90;;;6.25;;
15516;SDS011;7860;52.030;5.572;2023-07-31T02:53:07;17.90;;;5.74;;
15516;SDS011;7860;52.030;5.572;2023-07-31T02:54:07;21.37;;;6.60;;
15516;SDS011;7860;52.030;5.572;2023-07-31T02:55:07;16.45;;;6.31;;
15516;SDS011;7860;52.030;5.572;2023-07-31T02:56:07;20.03;;;6.08;;
15516;SDS011;7860;52.030;5.572;2023-07-31T02:57:07;17.69;;;6.01;;
15516;SDS011;7860;52.030;5.572;2023-07-31T02:58:07;19.66;;;6.16;;
15516;SDS011;7860;52.030;5.572;2023-07-31T02:59:07;20.34;;;5.81;;
15516;SDS011;7860;52.030;5.572;2023-07-31T03:00:07;16.89;;;6.37;;
15516;SDS011;7860;52.030;5.572;2023-07-31T03:01:07;19.85;;;6.35;;
15516;SDS011;7860;52.030;5.572;2023-07-31T03:02:07;18.94;;;6.01;;
15516;SDS011;7860;52.030;5.572;2023-07-31T03:03:07;19.93;;;6.00;;
15516;SDS011;7860;52.030;5.572;2023-07-31T03:04:08;21.33;;;6.61;;
15516;SDS011;7860;52.030;5.572;2023-07-31T03:05:08;19.46;;;5.89;;
15516;SDS011;7860;52.030;5.572;2023-07-31T03:06:08;19.43;;;5.82;;
15516;SDS011;7860;52.030;5.572;2023-07-31T03:07:08;21.10;;;6.20;;
15516;SDS011;7860;52.030;5.572;2023-07-31T03:08:08;20.03;;;6.20;;
15516;SDS011;7860;52.030;5.572;2023-07-31T03:09:08;19.52;;;6.57;;
15516;SDS011;7860;52.030;5.572;2023-07-31T03:10:08;21.47;;;6.20;;
15516;SDS011;7860;52.030;5.572;2023-07-31T03:11:08;20.22;;;6.60;;
15516;SDS011;7860;52.030;5.572;2023-07-31T03:12:08;22.04;;;6.87;;
15516;SDS011;7860;52.030;5.572;2023-07-31T03:13:08;23.80;;;6.31;;
15516;SDS011;7860;52.030;5.572;2023-07-31T03:14:08;20.98;;;6.65;;
15516;SDS011;7860;52.030;5.572;2023-07-31T03:15:09;18.57;;;6.15;;
15516;SDS011;7860;52.030;5.572;2023-07-31T03:16:08;22.50;;;6.66;;
15516;SDS011;7860;52.030;5.572;2023-07-31T03:17:09;22.60;;;6.35;;
15516;SDS011;7860;52.030;5.572;2023-07-31T03:18:09;22.36;;;6.30;;
15516;SDS011;7860;52.030;5.572;2023-07-31T03:19:09;20.74;;;6.87;;
15516;SDS011;7860;52.030;5.572;2023-07-31T03:20:09;19.28;;;6.44;;
15516;SDS011;7860;52.030;5.572;2023-07-31T03:21:09;20.26;;;6.57;;
15516;SDS011;7860;52.030;5.572;2023-07-31T03:22:09;20.48;;;5.86;;
15516;SDS011;7860;52.030;5.572;2023-07-31T03:23:09;17.28;;;6.48;;
15516;SDS011;7860;52.030;5.572;2023-07-31T03:24:09;19.53;;;6.40;;
15516;SDS011;7860;52.030;5.572;2023-07-31T03:25:09;22.05;;;6.69;;
15516;SDS011;7860;52.030;5.572;2023-07-31T03:26:09;23.60;;;6.73;;
15516;SDS011;7860;52.030;5.572;2023-07-31T03:27:09;22.69;;;6.29;;
15516;SDS011;7860;52.030;5.572;2023-07-31T03:28:09;21.00;;;6.28;;
15516;SDS011;7860;52.030;5.572;2023-07-31T03:29:09;20.01;;;6.89;;
15516;SDS011;7860;52.030;5.572;2023-07-31T03:30:10;19.54;;;6.78;;
15516;SDS011;7860;52.030;5.572;2023-07-31T03:31:09;22.58;;;6.80;;
15516;SDS011;7860;52.030;5.572;2023-07-31T03:32:09;21.66;;;6.47;;
15516;SDS011;7860;52.030;5.572;2023-07-31T03:33:10;18.74;;;5.95;;
15516;SDS011;7860;52.030;5.572;2023-07-31T03:34:10;17.43;;;6.08;;
15516;SDS011;7860;52.030;5.572;2023-07-31T03:35:10;20.60;;;6.34;;
15516;SDS011;7860;52.030;5.572;2023-07-31T03:36:10;18.27;;;5.55;;
15516;SDS011;7860;52.030;5.572;2023-07-31T03:37:10;20.49;;;6.22;;
15516;SDS011;7860;52.030;5.572;2023-07-31T03:38:10;18.55;;;6.09;;
15516;SDS011;7860;52.030;5.572;2023-07-31T03:39:10;21.92;;;6.19;;
15516;SDS011;7860;52.030;5.572;2023-07-31T03:40:10;19.94;;;6.19;;
15516;SDS011;7860;52.030;5.572;2023-07-31T03:41:10;18.76;;;6.59;;
15516;SDS011;7860;52.030;5.572;2023-07-31T03:42:10;20.82;;;5.96;;
15516;SDS011;7860;52.030;5.572;2023-07-31T03:43:10;21.32;;;6.24;;
15516;SDS011;7860;52.030;5.572;2023-07-31T03:44:10;25.32;;;6.77;;
15516;SDS011;7860;52.030;5.572;2023-07-31T03:45:10;21.50;;;6.23;;
15516;SDS011;7860;52.030;5.572;2023-07-31T03:46:10;16.16;;;5.61;;
15516;SDS011;7860;52.030;5.572;2023-07-31T03:47:10;22.75;;;6.38;;
15516;SDS011;7860;52.030;5.572;2023-07-31T03:48:11;19.76;;;6.15;;
15516;SDS011;7860;52.030;5.572;2023-07-31T03:49:11;19.61;;;6.08;;
15516;SDS011;7860;52.030;5.572;2023-07-31T03:50:11;16.04;;;5.79;;
15516;SDS011;7860;52.030;5.572;2023-07-31T03:51:11;22.68;;;6.34;;
15516;SDS011;7860;52.030;5.572;2023-07-31T03:52:11;18.53;;;6.36;;
15516;SDS011;7860;52.030;5.572;2023-07-31T03:53:11;16.50;;;6.04;;
15516;SDS011;7860;52.030;5.572;2023-07-31T03:54:11;16.00;;;5.96;;
15516;SDS011;7860;52.030;5.572;2023-07-31T03:55:11;17.36;;;5.38;;
15516;SDS011;7860;52.030;5.572;2023-07-31T03:56:11;20.96;;;6.47;;
15516;SDS011;7860;52.030;5.572;2023-07-31T03:57:11;18.17;;;6.14;;
15516;SDS011;7860;52.030;5.572;2023-07-31T03:58:11;19.50;;;5.67;;
15516;SDS011;7860;52.030;5.572;2023-07-31T03:59:11;20.01;;;5.90;;
15516;SDS011;7860;52.030;5.572;2023-07-31T04:00:12;21.40;;;7.03;;
15516;SDS011;7860;52.030;5.572;2023-07-31T04:01:11;18.20;;;6.02;;
15516;SDS011;7860;52.030;5.572;2023-07-31T04:02:12;18.94;;;5.82;;
15516;SDS011;7860;52.030;5.572;2023-07-31T04:03:12;19.43;;;5.91;;
15516;SDS011;7860;52.030;5.572;2023-07-31T04:04:12;19.08;;;6.22;;
15516;SDS011;7860;52.030;5.572;2023-07-31T04:05:12;20.36;;;6.01;;
15516;SDS011;7860;52.030;5.572;2023-07-31T04:06:12;18.32;;;5.75;;
15516;SDS011;7860;52.030;5.572;2023-07-31T04:07:12;15.37;;;5.56;;
15516;SDS011;7860;52.030;5.572;2023-07-31T04:08:12;19.72;;;5.93;;
15516;SDS011;7860;52.030;5.572;2023-07-31T04:09:12;15.24;;;5.54;;
15516;SDS011;7860;52.030;5.572;2023-07-31T04:10:12;20.36;;;6.13;;
15516;SDS011;7860;52.030;5.572;2023-07-31T04:11:12;18.56;;;6.13;;
15516;SDS011;7860;52.030;5.572;2023-07-31T04:12:12;15.86;;;5.74;;
15516;SDS011;7860;52.030;5.572;2023-07-31T04:13:12;16.70;;;5.76;;
15516;SDS011;7860;52.030;5.572;2023-07-31T04:14:12;21.14;;;5.75;;
15516;SDS011;7860;52.030;5.572;2023-07-31T04:15:12;19.25;;;5.97;;
15516;SDS011;7860;52.030;5.572;2023-07-31T04:16:12;22.66;;;5.80;;
15516;SDS011;7860;52.030;5.572;2023-07-31T04:17:12;21.56;;;6.17;;
15516;SDS011;7860;52.030;5.572;2023-07-31T04:18:13;18.89;;;6.32;;
15516;SDS011;7860;52.030;5.572;2023-07-31T04:19:13;20.55;;;6.08;;
15516;SDS011;7860;52.030;5.572;2023-07-31T04:20:13;16.49;;;5.53;;
15516;SDS011;7860;52.030;5.572;2023-07-31T04:21:13;18.96;;;5.84;;
15516;SDS011;7860;52.030;5.572;2023-07-31T04:22:13;18.42;;;6.11;;
15516;SDS011;7860;52.030;5.572;2023-07-31T04:23:13;17.19;;;6.21;;
15516;SDS011;7860;52.030;5.572;2023-07-31T04:24:13;18.77;;;6.21;;
15516;SDS011;7860;52.030;5.572;2023-07-31T04:25:13;20.06;;;5.52;;
15516;SDS011;7860;52.030;5.572;2023-07-31T04:26:13;19.13;;;5.85;;
15516;SDS011;7860;52.030;5.572;2023-07-31T04:27:13;20.08;;;5.76;;
15516;SDS011;7860;52.030;5.572;2023-07-31T04:28:13;19.88;;;6.32;;
15516;SDS011;7860;52.030;5.572;2023-07-31T04:29:13;20.25;;;5.69;;
15516;SDS011;7860;52.030;5.572;2023-07-31T04:30:13;18.55;;;6.09;;
15516;SDS011;7860;52.030;5.572;2023-07-31T04:31:13;16.00;;;5.74;;
15516;SDS011;7860;52.030;5.572;2023-07-31T04:32:13;17.43;;;5.92;;
15516;SDS011;7860;52.030;5.572;2023-07-31T04:33:14;16.35;;;6.13;;
15516;SDS011;7860;52.030;5.572;2023-07-31T04:34:14;16.49;;;5.90;;
15516;SDS011;7860;52.030;5.572;2023-07-31T04:35:14;17.85;;;5.98;;
15516;SDS011;7860;52.030;5.572;2023-07-31T04:36:14;16.96;;;6.38;;
15516;SDS011;7860;52.030;5.572;2023-07-31T04:37:14;18.00;;;5.99;;
15516;SDS011;7860;52.030;5.572;2023-07-31T04:38:14;18.25;;;5.92;;
15516;SDS011;7860;52.030;5.572;2023-07-31T04:39:14;18.39;;;5.89;;
15516;SDS011;7860;52.030;5.572;2023-07-31T04:40:14;19.38;;;6.09;;
15516;SDS011;7860;52.030;5.572;2023-07-31T04:41:14;17.72;;;5.48;;
15516;SDS011;7860;52.030;5.572;2023-07-31T04:42:14;17.96;;;5.61;;
15516;SDS011;7860;52.030;5.572;2023-07-31T04:43:14;23.60;;;5.92;;
15516;SDS011;7860;52.030;5.572;2023-07-31T04:44:14;20.02;;;6.18;;
15516;SDS011;7860;52.030;5.572;2023-07-31T04:45:14;19.14;;;6.10;;
15516;SDS011;7860;52.030;5.572;2023-07-31T04:46:14;17.47;;;5.48;;
15516;SDS011;7860;52.030;5.572;2023-07-31T04:47:14;16.93;;;6.07;;
15516;SDS011;7860;52.030;5.572;2023-07-31T04:48:14;16.41;;;5.42;;
15516;SDS011;7860;52.030;5.572;2023-07-31T04:49:15;17.15;;;5.63;;
15516;SDS011;7860;52.030;5.572;2023-07-31T04:50:15;18.23;;;5.59;;
15516;SDS011;7860;52.030;5.572;2023-07-31T04:51:15;16.70;;;5.92;;
15516;SDS011;7860;52.030;5.572;2023-07-31T04:52:15;18.96;;;5.90;;
15516;SDS011;7860;52.030;5.572;2023-07-31T04:53:15;21.64;;;5.89;;
15516;SDS011;7860;52.030;5.572;2023-07-31T04:54:15;14.20;;;5.11;;
15516;SDS011;7860;52.030;5.572;2023-07-31T04:55:15;17.30;;;5.36;;
15516;SDS011;7860;52.030;5.572;2023-07-31T04:56:15;16.90;;;5.59;;
15516;SDS011;7860;52.030;5.572;2023-07-31T04:57:15;19.11;;;5.78;;
15516;SDS011;7860;52.030;5.572;2023-07-31T04:58:15;16.28;;;5.60;;
15516;SDS011;7860;52.030;5.572;2023-07-31T04:59:15;17.28;;;5.71;;
15516;SDS011;7860;52.030;5.572;2023-07-31T05:00:15;18.34;;;5.65;;
15516;SDS011;7860;52.030;5.572;2023-07-31T05:01:16;15.29;;;5.74;;
15516;SDS011;7860;52.030;5.572;2023-07-31T05:02:16;16.76;;;5.11;;
15516;SDS011;7860;52.030;5.572;2023-07-31T05:03:16;18.27;;;5.57;;
15516;SDS011;7860;52.030;5.572;2023-07-31T05:04:16;17.51;;;5.90;;
15516;SDS011;7860;52.030;5.572;2023-07-31T05:05:16;19.70;;;5.96;;
15516;SDS011;7860;52.030;5.572;2023-07-31T05:06:17;15.72;;;5.50;;
15516;SDS011;7860;52.030;5.572;2023-07-31T05:07:17;18.00;;;5.56;;
15516;SDS011;7860;52.030;5.572;2023-07-31T05:08:17;16.54;;;5.47;;
15516;SDS011;7860;52.030;5.572;2023-07-31T05:09:17;17.53;;;5.57;;
15516;SDS011;7860;52.030;5.572;2023-07-31T05:10:17;20.09;;;6.15;;
15516;SDS011;7860;52.030;5.572;2023-07-31T05:11:17;17.55;;;5.41;;
15516;SDS011;7860;52.030;5.572;2023-07-31T05:12:17;15.88;;;5.05;;
15516;SDS011;7860;52.030;5.572;2023-07-31T05:13:17;16.18;;;5.40;;
15516;SDS011;7860;52.030;5.572;2023-07-31T05:14:17;17.43;;;5.16;;
15516;SDS011;7860;52.030;5.572;2023-07-31T05:15:17;17.14;;;5.33;;
15516;SDS011;7860;52.030;5.572;2023-07-31T05:16:17;14.33;;;5.00;;
15516;SDS011;7860;52.030;5.572;2023-07-31T05:17:17;16.21;;;5.35;;
15516;SDS011;7860;52.030;5.572;2023-07-31T05:18:17;15.31;;;5.13;;
15516;SDS011;7860;52.030;5.572;2023-07-31T05:19:17;16.94;;;5.17;;
15516;SDS011;7860;52.030;5.572;2023-07-31T05:20:17;14.50;;;5.44;;
15516;SDS011;7860;52.030;5.572;2023-07-31T05:21:17;14.90;;;5.16;;
15516;SDS011;7860;52.030;5.572;2023-07-31T05:22:17;16.06;;;4.80;;
15516;SDS011;7860;52.030;5.572;2023-07-31T05:23:18;15.39;;;5.43;;
15516;SDS011;7860;52.030;5.572;2023-07-31T05:24:18;13.52;;;4.78;;
15516;SDS011;7860;52.030;5.572;2023-07-31T05:25:19;14.41;;;4.59;;
15516;SDS011;7860;52.030;5.572;2023-07-31T05:26:19;14.93;;;4.92;;
15516;SDS011;7860;52.030;5.572;2023-07-31T05:27:19;13.39;;;5.09;;
15516;SDS011;7860;52.030;5.572;2023-07-31T05:28:20;15.44;;;5.21;;
15516;SDS011;7860;52.030;5.572;2023-07-31T05:29:19;13.62;;;5.04;;
15516;SDS011;7860;52.030;5.572;2023-07-31T05:30:19;13.28;;;4.73;;
15516;SDS011;7860;52.030;5.572;2023-07-31T05:31:19;14.69;;;4.84;;
15516;SDS011;7860;52.030;5.572;2023-07-31T05:32:19;18.48;;;5.06;;
15516;SDS011;7860;52.030;5.572;2023-07-31T05:33:19;18.77;;;5.04;;
15516;SDS011;7860;52.030;5.572;2023-07-31T05:34:19;14.25;;;4.83;;
15516;SDS011;7860;52.030;5.572;2023-07-31T05:35:19;13.66;;;5.09;;
15516;SDS011;7860;52.030;5.572;2023-07-31T05:36:19;14.38;;;4.83;;
15516;SDS011;7860;52.030;5.572;2023-07-31T05:37:19;14.20;;;5.07;;
15516;SDS011;7860;52.030;5.572;2023-07-31T05:38:19;13.37;;;4.92;;
15516;SDS011;7860;52.030;5.572;2023-07-31T05:39:19;13.95;;;4.94;;
15516;SDS011;7860;52.030;5.572;2023-07-31T05:40:19;14.19;;;4.96;;
15516;SDS011;7860;52.030;5.572;2023-07-31T05:41:19;14.36;;;5.17;;
15516;SDS011;7860;52.030;5.572;2023-07-31T05:42:20;16.13;;;5.17;;
15516;SDS011;7860;52.030;5.572;2023-07-31T05:43:20;14.55;;;5.18;;
15516;SDS011;7860;52.030;5.572;2023-07-31T05:44:20;15.82;;;5.06;;
15516;SDS011;7860;52.030;5.572;2023-07-31T05:45:20;14.21;;;5.05;;
15516;SDS011;7860;52.030;5.572;2023-07-31T05:46:20;16.40;;;5.46;;
15516;SDS011;7860;52.030;5.572;2023-07-31T05:47:20;13.37;;;5.19;;
15516;SDS011;7860;52.030;5.572;2023-07-31T05:48:20;13.67;;;5.24;;
15516;SDS011;7860;52.030;5.572;2023-07-31T05:49:20;13.41;;;4.87;;
15516;SDS011;7860;52.030;5.572;2023-07-31T05:50:20;12.36;;;4.73;;
15516;SDS011;7860;52.030;5.572;2023-07-31T05:51:20;14.36;;;5.37;;
15516;SDS011;7860;52.030;5.572;2023-07-31T05:52:20;12.29;;;5.18;;
15516;SDS011;7860;52.030;5.572;2023-07-31T05:53:20;11.50;;;5.40;;
15516;SDS011;7860;52.030;5.572;2023-07-31T05:54:20;13.11;;;5.29;;
15516;SDS011;7860;52.030;5.572;2023-07-31T05:55:20;11.95;;;5.40;;
15516;SDS011;7860;52.030;5.572;2023-07-31T05:56:20;14.79;;;5.52;;
15516;SDS011;7860;52.030;5.572;2023-07-31T05:57:20;15.13;;;5.84;;
15516;SDS011;7860;52.030;5.572;2023-07-31T05:58:21;13.39;;;5.06;;
15516;SDS011;7860;52.030;5.572;2023-07-31T05:59:20;12.23;;;5.29;;
15516;SDS011;7860;52.030;5.572;2023-07-31T06:00:21;14.71;;;5.81;;
15516;SDS011;7860;52.030;5.572;2023-07-31T06:01:21;15.18;;;5.86;;
15516;SDS011;7860;52.030;5.572;2023-07-31T06:02:21;12.89;;;5.15;;
15516;SDS011;7860;52.030;5.572;2023-07-31T06:03:21;15.39;;;6.13;;